sensor_id;sensor_type;location;lat;lon;timestamp;temperature;humidity
26990;DHT22;14537;47.788;11.858;2023-02-28T00:01:23;-3.80;99.90
26990;DHT22;14537;47.788;11.858;2023-02-28T00:03:49;-3.90;99.90
26990;DHT22;14537;47.788;11.858;2023-02-28T00:06:16;-4.00;99.90
26990;DHT22;14537;47.788;11.858;2023-02-28T00:08:41;-4.00;99.90
26990;DHT22;14537;47.788;11.858;2023-02-28T00:11:10;-4.00;99.90
26990;DHT22;14537;47.788;11.858;2023-02-28T00:13:40;-4.10;99.90
26990;DHT22;14537;47.788;11.858;2023-02-28T00:16:12;-4.20;99.90
26990;DHT22;14537;47.788;11.858;2023-02-28T00:18:39;-4.20;99.90
26990;DHT22;14537;47.788;11.858;2023-02-28T00:21:05;-4.30;99.90
26990;DHT22;14537;47.788;11.858;2023-02-28T00:23:31;-4.40;99.90
26990;DHT22;14537;47.788;11.858;2023-02-28T00:25:56;-4.50;99.90
26990;DHT22;14537;47.788;11.858;2023-02-28T00:28:22;-4.40;99.90
26990;DHT22;14537;47.788;11.858;2023-02-28T00:30:48;-4.50;99.90
26990;DHT22;14537;47.788;11.858;2023-02-28T00:33:14;-4.50;99.90
26990;DHT22;14537;47.788;11.858;2023-02-28T00:35:40;-4.60;99.90
26990;DHT22;14537;47.788;11.858;2023-02-28T00:38:05;-4.70;99.90
26990;DHT22;14537;47.788;11.858;2023-02-28T00:40:31;-4.80;99.90
26990;DHT22;14537;47.788;11.858;2023-02-28T00:42:57;-4.90;99.90
26990;DHT22;14537;47.788;11.858;2023-02-28T00:45:22;-5.00;99.90
26990;DHT22;14537;47.788;11.858;2023-02-28T00:47:48;-5.00;99.90
26990;DHT22;14537;47.788;11.858;2023-02-28T00:50:19;-5.20;99.90
26990;DHT22;14537;47.788;11.858;2023-02-28T00:52:46;-5.30;99.90
26990;DHT22;14537;47.788;11.858;2023-02-28T00:55:12;-5.30;99.90
26990;DHT22;14537;47.788;11.858;2023-02-28T00:57:37;-5.30;99.90
26990;DHT22;14537;47.788;11.858;2023-02-28T01:00:04;-5.30;99.90
26990;DHT22;14537;47.788;11.858;2023-02-28T01:02:29;-5.30;99.90
26990;DHT22;14537;47.788;11.858;2023-02-28T01:04:55;-5.30;99.90
26990;DHT22;14537;47.788;11.858;2023-02-28T01:07:22;-5.30;99.90
26990;DHT22;14537;47.788;11.858;2023-02-28T01:09:48;-5.30;99.90
26990;DHT22;14537;47.788;11.858;2023-02-28T01:12:14;-5.30;99.90
26990;DHT22;14537;47.788;11.858;2023-02-28T01:14:40;-5.30;99.90
26990;DHT22;14537;47.788;11.858;2023-02-28T01:17:06;-5.40;99.90
26990;DHT22;14537;47.788;11.858;2023-02-28T01:19:32;-5.40;99.90
26990;DHT22;14537;47.788;11.858;2023-02-28T01:22:03;-5.40;99.90
26990;DHT22;14537;47.788;11.858;2023-02-28T01:24:29;-5.40;99.90
26990;DHT22;14537;47.788;11.858;2023-02-28T01:26:55;-5.40;99.90
26990;DHT22;14537;47.788;11.858;2023-02-28T01:29:21;-5.50;99.90
26990;DHT22;14537;47.788;11.858;2023-02-28T01:31:46;-5.70;99.90
26990;DHT22;14537;47.788;11.858;2023-02-28T01:34:12;-5.80;99.90
26990;DHT22;14537;47.788;11.858;2023-02-28T01:36:37;-5.80;99.90
26990;DHT22;14537;47.788;11.858;2023-02-28T01:39:03;-5.90;99.90
26990;DHT22;14537;47.788;11.858;2023-02-28T01:41:32;-5.90;99.90
26990;DHT22;14537;47.788;11.858;2023-02-28T01:47:02;-5.90;99.90
26990;DHT22;14537;47.788;11.858;2023-02-28T01:49:28;-5.90;99.90
26990;DHT22;14537;47.788;11.858;2023-02-28T01:51:55;-5.90;99.90
26990;DHT22;14537;47.788;11.858;2023-02-28T01:54:30;-5.90;99.90
26990;DHT22;14537;47.788;11.858;2023-02-28T01:57:06;-5.90;99.90
26990;DHT22;14537;47.788;11.858;2023-02-28T01:59:37;-5.90;99.90
26990;DHT22;14537;47.788;11.858;2023-02-28T02:02:05;-5.90;99.90
26990;DHT22;14537;47.788;11.858;2023-02-28T02:04:45;-6.00;99.90
26990;DHT22;14537;47.788;11.858;2023-02-28T02:07:15;-6.40;99.90
26990;DHT22;14537;47.788;11.858;2023-02-28T02:09:41;-6.80;99.90
26990;DHT22;14537;47.788;11.858;2023-02-28T02:12:23;-6.80;99.90
26990;DHT22;14537;47.788;11.858;2023-02-28T02:15:16;-6.60;99.90
26990;DHT22;14537;47.788;11.858;2023-02-28T02:17:45;-6.50;99.90
26990;DHT22;14537;47.788;11.858;2023-02-28T02:35:12;-6.90;99.90
26990;DHT22;14537;47.788;11.858;2023-02-28T02:38:05;-6.90;99.90
26990;DHT22;14537;47.788;11.858;2023-02-28T02:40:57;-6.80;99.90
26990;DHT22;14537;47.788;11.858;2023-02-28T02:46:32;-6.70;99.90
26990;DHT22;14537;47.788;11.858;2023-02-28T02:49:01;-6.70;99.90
26990;DHT22;14537;47.788;11.858;2023-02-28T02:51:31;-6.70;99.90
26990;DHT22;14537;47.788;11.858;2023-02-28T02:54:06;-6.70;99.90
26990;DHT22;14537;47.788;11.858;2023-02-28T02:56:34;-6.70;99.90
26990;DHT22;14537;47.788;11.858;2023-02-28T02:59:04;-6.80;99.90
26990;DHT22;14537;47.788;11.858;2023-02-28T03:01:32;-6.80;99.90
26990;DHT22;14537;47.788;11.858;2023-02-28T03:04:19;-6.90;99.90
26990;DHT22;14537;47.788;11.858;2023-02-28T03:06:45;-6.90;99.90
26990;DHT22;14537;47.788;11.858;2023-02-28T03:09:10;-6.90;99.90
26990;DHT22;14537;47.788;11.858;2023-02-28T03:11:38;-6.90;99.90
26990;DHT22;14537;47.788;11.858;2023-02-28T03:17:07;-7.10;99.90
26990;DHT22;14537;47.788;11.858;2023-02-28T03:31:17;-7.40;99.90
26990;DHT22;14537;47.788;11.858;2023-02-28T03:33:54;-7.50;99.90
26990;DHT22;14537;47.788;11.858;2023-02-28T03:36:26;-7.40;99.90
26990;DHT22;14537;47.788;11.858;2023-02-28T03:39:04;-7.30;99.90
26990;DHT22;14537;47.788;11.858;2023-02-28T03:41:39;-7.30;99.90
26990;DHT22;14537;47.788;11.858;2023-02-28T03:44:21;-7.20;99.90
26990;DHT22;14537;47.788;11.858;2023-02-28T03:47:17;-7.20;99.90
26990;DHT22;14537;47.788;11.858;2023-02-28T03:49:53;-7.30;99.90
26990;DHT22;14537;47.788;11.858;2023-02-28T03:52:22;-7.30;99.90
26990;DHT22;14537;47.788;11.858;2023-02-28T03:54:53;-7.40;99.90
26990;DHT22;14537;47.788;11.858;2023-02-28T04:00:04;-7.40;99.90
26990;DHT22;14537;47.788;11.858;2023-02-28T04:02:32;-7.50;99.90
26990;DHT22;14537;47.788;11.858;2023-02-28T04:04:59;-7.60;99.90
26990;DHT22;14537;47.788;11.858;2023-02-28T04:07:29;-7.90;99.90
26990;DHT22;14537;47.788;11.858;2023-02-28T04:09:55;-8.00;99.90
26990;DHT22;14537;47.788;11.858;2023-02-28T04:12:21;-8.10;99.90
26990;DHT22;14537;47.788;11.858;2023-02-28T04:14:49;-8.20;99.90
26990;DHT22;14537;47.788;11.858;2023-02-28T04:17:15;-8.60;99.90
26990;DHT22;14537;47.788;11.858;2023-02-28T04:19:40;-8.70;99.90
26990;DHT22;14537;47.788;11.858;2023-02-28T04:22:08;-8.80;99.90
26990;DHT22;14537;47.788;11.858;2023-02-28T04:24:34;-8.80;99.90
26990;DHT22;14537;47.788;11.858;2023-02-28T04:26:59;-8.80;99.90
26990;DHT22;14537;47.788;11.858;2023-02-28T04:29:27;-9.10;99.90
26990;DHT22;14537;47.788;11.858;2023-02-28T04:31:53;-9.30;99.90
26990;DHT22;14537;47.788;11.858;2023-02-28T04:34:20;-9.30;99.90
26990;DHT22;14537;47.788;11.858;2023-02-28T04:36:47;-9.40;99.90
26990;DHT22;14537;47.788;11.858;2023-02-28T04:39:19;-9.50;99.90
26990;DHT22;14537;47.788;11.858;2023-02-28T04:41:45;-9.30;99.90
26990;DHT22;14537;47.788;11.858;2023-02-28T04:44:11;-9.20;99.90
26990;DHT22;14537;47.788;11.858;2023-02-28T04:46:37;-9.20;99.90
26990;DHT22;14537;47.788;11.858;2023-02-28T04:49:03;-9.20;99.90
26990;DHT22;14537;47.788;11.858;2023-02-28T04:51:28;-9.00;99.90
26990;DHT22;14537;47.788;11.858;2023-02-28T04:53:54;-9.00;99.90
26990;DHT22;14537;47.788;11.858;2023-02-28T04:56:20;-9.00;99.90
26990;DHT22;14537;47.788;11.858;2023-02-28T04:58:47;-9.20;99.90
26990;DHT22;14537;47.788;11.858;2023-02-28T05:01:26;-9.20;99.90
26990;DHT22;14537;47.788;11.858;2023-02-28T05:03:53;-9.30;99.90
26990;DHT22;14537;47.788;11.858;2023-02-28T05:06:20;-9.10;99.90
26990;DHT22;14537;47.788;11.858;2023-02-28T05:08:46;-9.20;99.90
26990;DHT22;14537;47.788;11.858;2023-02-28T05:13:52;-9.30;99.90
26990;DHT22;14537;47.788;11.858;2023-02-28T05:16:19;-9.40;99.90
26990;DHT22;14537;47.788;11.858;2023-02-28T05:18:45;-9.30;99.90
26990;DHT22;14537;47.788;11.858;2023-02-28T05:21:38;-9.20;99.90
26990;DHT22;14537;47.788;11.858;2023-02-28T05:24:06;-9.10;99.90
26990;DHT22;14537;47.788;11.858;2023-02-28T05:26:42;-9.00;99.90
26990;DHT22;14537;47.788;11.858;2023-02-28T05:29:09;-9.00;99.90
26990;DHT22;14537;47.788;11.858;2023-02-28T05:31:35;-9.00;99.90
26990;DHT22;14537;47.788;11.858;2023-02-28T05:34:01;-8.90;99.90
26990;DHT22;14537;47.788;11.858;2023-02-28T05:36:27;-8.70;99.90
26990;DHT22;14537;47.788;11.858;2023-02-28T05:38:53;-8.50;99.90
26990;DHT22;14537;47.788;11.858;2023-02-28T05:41:19;-8.60;99.90
26990;DHT22;14537;47.788;11.858;2023-02-28T05:43:45;-8.50;99.90
26990;DHT22;14537;47.788;11.858;2023-02-28T05:46:12;-8.40;99.90
26990;DHT22;14537;47.788;11.858;2023-02-28T05:48:38;-8.30;99.90
26990;DHT22;14537;47.788;11.858;2023-02-28T05:51:05;-8.10;99.90
26990;DHT22;14537;47.788;11.858;2023-02-28T05:53:32;-8.10;99.90
26990;DHT22;14537;47.788;11.858;2023-02-28T05:55:58;-8.10;99.90
26990;DHT22;14537;47.788;11.858;2023-02-28T05:58:24;-8.10;99.90
26990;DHT22;14537;47.788;11.858;2023-02-28T06:00:59;-8.10;99.90
26990;DHT22;14537;47.788;11.858;2023-02-28T06:03:25;-8.10;99.90
26990;DHT22;14537;47.788;11.858;2023-02-28T06:05:51;-8.00;99.90
26990;DHT22;14537;47.788;11.858;2023-02-28T06:08:16;-7.90;99.90
26990;DHT22;14537;47.788;11.858;2023-02-28T06:10:42;-7.80;99.90
26990;DHT22;14537;47.788;11.858;2023-02-28T06:13:08;-7.70;99.90
26990;DHT22;14537;47.788;11.858;2023-02-28T06:15:33;-7.60;99.90
26990;DHT22;14537;47.788;11.858;2023-02-28T06:17:59;-7.60;99.90
26990;DHT22;14537;47.788;11.858;2023-02-28T06:20:26;-7.50;99.90
26990;DHT22;14537;47.788;11.858;2023-02-28T06:22:55;-7.70;99.90
26990;DHT22;14537;47.788;11.858;2023-02-28T06:25:21;-7.80;99.90
26990;DHT22;14537;47.788;11.858;2023-02-28T06:27:47;-7.70;99.90
26990;DHT22;14537;47.788;11.858;2023-02-28T06:30:14;-7.60;99.90
26990;DHT22;14537;47.788;11.858;2023-02-28T06:32:39;-7.60;99.90
26990;DHT22;14537;47.788;11.858;2023-02-28T06:35:05;-7.50;99.90
26990;DHT22;14537;47.788;11.858;2023-02-28T06:37:32;-7.40;99.90
26990;DHT22;14537;47.788;11.858;2023-02-28T06:39:57;-7.30;99.90
26990;DHT22;14537;47.788;11.858;2023-02-28T06:42:24;-7.10;99.90
26990;DHT22;14537;47.788;11.858;2023-02-28T06:44:58;-7.00;99.90
26990;DHT22;14537;47.788;11.858;2023-02-28T06:47:23;-6.90;99.90
26990;DHT22;14537;47.788;11.858;2023-02-28T06:49:49;-6.80;99.90
26990;DHT22;14537;47.788;11.858;2023-02-28T06:52:15;-6.70;99.90
26990;DHT22;14537;47.788;11.858;2023-02-28T06:54:41;-6.60;99.90
26990;DHT22;14537;47.788;11.858;2023-02-28T06:57:07;-6.40;99.90
26990;DHT22;14537;47.788;11.858;2023-02-28T06:59:32;-6.30;99.90
26990;DHT22;14537;47.788;11.858;2023-02-28T07:01:58;-6.20;99.90
26990;DHT22;14537;47.788;11.858;2023-02-28T07:04:24;-6.10;99.90
26990;DHT22;14537;47.788;11.858;2023-02-28T07:06:49;-6.00;99.90
26990;DHT22;14537;47.788;11.858;2023-02-28T07:09:15;-5.90;99.90
26990;DHT22;14537;47.788;11.858;2023-02-28T07:11:41;-5.80;99.90
26990;DHT22;14537;47.788;11.858;2023-02-28T07:14:08;-5.70;99.90
26990;DHT22;14537;47.788;11.858;2023-02-28T07:16:35;-5.50;99.90
26990;DHT22;14537;47.788;11.858;2023-02-28T07:19:00;-5.50;99.90
26990;DHT22;14537;47.788;11.858;2023-02-28T07:21:26;-5.40;99.90
26990;DHT22;14537;47.788;11.858;2023-02-28T07:23:52;-5.30;99.90
26990;DHT22;14537;47.788;11.858;2023-02-28T07:26:19;-5.20;99.90
26990;DHT22;14537;47.788;11.858;2023-02-28T07:28:46;-5.10;99.90
26990;DHT22;14537;47.788;11.858;2023-02-28T07:31:13;-5.00;99.90
26990;DHT22;14537;47.788;11.858;2023-02-28T07:33:39;-4.90;99.90
26990;DHT22;14537;47.788;11.858;2023-02-28T07:36:10;-4.90;99.90
26990;DHT22;14537;47.788;11.858;2023-02-28T07:38:41;-4.80;99.90
26990;DHT22;14537;47.788;11.858;2023-02-28T07:41:08;-4.80;99.90
26990;DHT22;14537;47.788;11.858;2023-02-28T07:43:34;-4.60;99.90
26990;DHT22;14537;47.788;11.858;2023-02-28T07:46:04;-4.60;99.90
26990;DHT22;14537;47.788;11.858;2023-02-28T07:48:30;-4.50;99.90
26990;DHT22;14537;47.788;11.858;2023-02-28T07:50:57;-4.40;99.90
26990;DHT22;14537;47.788;11.858;2023-02-28T07:53:23;-4.40;99.90
26990;DHT22;14537;47.788;11.858;2023-02-28T07:55:49;-4.30;99.90
26990;DHT22;14537;47.788;11.858;2023-02-28T07:58:14;-4.20;99.90
26990;DHT22;14537;47.788;11.858;2023-02-28T08:00:40;-4.10;99.90
26990;DHT22;14537;47.788;11.858;2023-02-28T08:03:06;-4.00;99.90
26990;DHT22;14537;47.788;11.858;2023-02-28T08:05:31;-3.90;99.90
26990;DHT22;14537;47.788;11.858;2023-02-28T08:07:57;-3.90;99.90
26990;DHT22;14537;47.788;11.858;2023-02-28T08:10:23;-3.70;99.90
26990;DHT22;14537;47.788;11.858;2023-02-28T08:12:49;-3.60;99.90
26990;DHT22;14537;47.788;11.858;2023-02-28T08:15:15;-3.50;99.90
26990;DHT22;14537;47.788;11.858;2023-02-28T08:17:40;-3.40;99.90
26990;DHT22;14537;47.788;11.858;2023-02-28T08:20:06;-3.30;99.90
26990;DHT22;14537;47.788;11.858;2023-02-28T08:22:32;-3.20;99.90
26990;DHT22;14537;47.788;11.858;2023-02-28T08:24:58;-3.20;99.90
26990;DHT22;14537;47.788;11.858;2023-02-28T08:27:24;-3.10;99.90
26990;DHT22;14537;47.788;11.858;2023-02-28T08:29:49;-3.00;99.90
26990;DHT22;14537;47.788;11.858;2023-02-28T08:32:15;-2.90;99.90
26990;DHT22;14537;47.788;11.858;2023-02-28T08:34:40;-2.80;99.90
26990;DHT22;14537;47.788;11.858;2023-02-28T08:37:06;-2.70;99.90
26990;DHT22;14537;47.788;11.858;2023-02-28T08:39:35;-2.60;99.90
26990;DHT22;14537;47.788;11.858;2023-02-28T08:42:02;-2.60;99.90
26990;DHT22;14537;47.788;11.858;2023-02-28T08:44:28;-2.50;99.90
26990;DHT22;14537;47.788;11.858;2023-02-28T08:46:53;-2.40;99.90
26990;DHT22;14537;47.788;11.858;2023-02-28T08:49:19;-2.40;99.90
26990;DHT22;14537;47.788;11.858;2023-02-28T08:51:44;-2.30;99.90
26990;DHT22;14537;47.788;11.858;2023-02-28T08:54:10;-2.30;99.90
26990;DHT22;14537;47.788;11.858;2023-02-28T08:56:41;-2.30;99.90
26990;DHT22;14537;47.788;11.858;2023-02-28T08:59:09;-2.20;99.90
26990;DHT22;14537;47.788;11.858;2023-02-28T09:01:34;-2.20;99.90
26990;DHT22;14537;47.788;11.858;2023-02-28T09:04:02;-2.20;99.90
26990;DHT22;14537;47.788;11.858;2023-02-28T09:06:28;-2.10;99.90
26990;DHT22;14537;47.788;11.858;2023-02-28T09:08:57;-2.10;99.90
26990;DHT22;14537;47.788;11.858;2023-02-28T09:11:24;-2.20;99.90
26990;DHT22;14537;47.788;11.858;2023-02-28T09:13:49;-2.20;99.90
26990;DHT22;14537;47.788;11.858;2023-02-28T09:16:16;-2.20;99.90
26990;DHT22;14537;47.788;11.858;2023-02-28T09:18:42;-2.20;99.90
26990;DHT22;14537;47.788;11.858;2023-02-28T09:21:09;-2.10;99.90
26990;DHT22;14537;47.788;11.858;2023-02-28T09:23:36;-2.00;99.90
26990;DHT22;14537;47.788;11.858;2023-02-28T09:26:04;-2.00;99.90
26990;DHT22;14537;47.788;11.858;2023-02-28T09:28:30;-1.90;99.90
26990;DHT22;14537;47.788;11.858;2023-02-28T09:30:55;-1.90;99.90
26990;DHT22;14537;47.788;11.858;2023-02-28T09:33:23;-1.90;99.90
26990;DHT22;14537;47.788;11.858;2023-02-28T09:35:49;-1.80;99.90
26990;DHT22;14537;47.788;11.858;2023-02-28T09:38:15;-1.80;99.90
26990;DHT22;14537;47.788;11.858;2023-02-28T09:40:49;-1.80;99.90
26990;DHT22;14537;47.788;11.858;2023-02-28T09:43:17;-1.80;99.90
26990;DHT22;14537;47.788;11.858;2023-02-28T09:45:48;-1.80;99.90
26990;DHT22;14537;47.788;11.858;2023-02-28T09:48:23;-1.70;99.90
26990;DHT22;14537;47.788;11.858;2023-02-28T09:50:55;-1.80;99.90
26990;DHT22;14537;47.788;11.858;2023-02-28T09:53:33;-1.80;99.90
26990;DHT22;14537;47.788;11.858;2023-02-28T09:59:44;-1.60;99.90
26990;DHT22;14537;47.788;11.858;2023-02-28T10:04:55;-1.50;99.90
26990;DHT22;14537;47.788;11.858;2023-02-28T10:09:58;-1.50;99.90
26990;DHT22;14537;47.788;11.858;2023-02-28T10:12:26;-1.40;99.90
26990;DHT22;14537;47.788;11.858;2023-02-28T10:14:54;-1.50;99.90
26990;DHT22;14537;47.788;11.858;2023-02-28T10:17:25;-1.50;99.90
26990;DHT22;14537;47.788;11.858;2023-02-28T10:20:04;-1.50;99.90
26990;DHT22;14537;47.788;11.858;2023-02-28T10:25:27;-1.50;99.90
26990;DHT22;14537;47.788;11.858;2023-02-28T10:28:15;-1.50;99.90
26990;DHT22;14537;47.788;11.858;2023-02-28T10:30:51;-1.40;99.90
26990;DHT22;14537;47.788;11.858;2023-02-28T10:35:55;-1.50;99.90
26990;DHT22;14537;47.788;11.858;2023-02-28T10:38:24;-1.30;99.90
26990;DHT22;14537;47.788;11.858;2023-02-28T10:40:50;-1.30;99.90
26990;DHT22;14537;47.788;11.858;2023-02-28T10:43:18;-1.40;99.90
26990;DHT22;14537;47.788;11.858;2023-02-28T10:58:56;-1.10;99.90
26990;DHT22;14537;47.788;11.858;2023-02-28T11:06:59;-0.80;99.90
26990;DHT22;14537;47.788;11.858;2023-02-28T11:09:32;-0.70;99.90
26990;DHT22;14537;47.788;11.858;2023-02-28T11:11:59;-0.60;99.90
26990;DHT22;14537;47.788;11.858;2023-02-28T11:14:28;-0.50;99.90
26990;DHT22;14537;47.788;11.858;2023-02-28T11:16:54;-0.60;99.90
26990;DHT22;14537;47.788;11.858;2023-02-28T11:19:27;-0.60;99.90
26990;DHT22;14537;47.788;11.858;2023-02-28T11:22:03;-0.50;99.90
26990;DHT22;14537;47.788;11.858;2023-02-28T11:24:51;-0.50;99.90
26990;DHT22;14537;47.788;11.858;2023-02-28T11:29:58;-0.60;99.90
26990;DHT22;14537;47.788;11.858;2023-02-28T11:32:26;-0.60;99.90
26990;DHT22;14537;47.788;11.858;2023-02-28T11:37:36;-0.60;99.90
26990;DHT22;14537;47.788;11.858;2023-02-28T11:40:09;-0.60;99.90
26990;DHT22;14537;47.788;11.858;2023-02-28T11:45:24;-0.50;99.90
26990;DHT22;14537;47.788;11.858;2023-02-28T11:51:12;-0.40;99.90
26990;DHT22;14537;47.788;11.858;2023-02-28T11:56:43;-0.30;99.90
26990;DHT22;14537;47.788;11.858;2023-02-28T12:00:00;-0.10;99.90
26990;DHT22;14537;47.788;11.858;2023-02-28T12:02:35;-0.20;99.90
26990;DHT22;14537;47.788;11.858;2023-02-28T12:05:29;-0.30;99.90
26990;DHT22;14537;47.788;11.858;2023-02-28T12:16:23;-0.40;99.90
26990;DHT22;14537;47.788;11.858;2023-02-28T12:19:30;-0.30;99.90
26990;DHT22;14537;47.788;11.858;2023-02-28T12:24:54;-0.40;99.90
26990;DHT22;14537;47.788;11.858;2023-02-28T12:27:22;-0.30;99.90
26990;DHT22;14537;47.788;11.858;2023-02-28T12:29:54;-0.20;99.90
26990;DHT22;14537;47.788;11.858;2023-02-28T12:32:37;-0.20;99.90
26990;DHT22;14537;47.788;11.858;2023-02-28T12:35:06;-0.20;99.90
26990;DHT22;14537;47.788;11.858;2023-02-28T12:40:14;-0.10;99.90
26990;DHT22;14537;47.788;11.858;2023-02-28T12:42:55;-0.20;99.90
26990;DHT22;14537;47.788;11.858;2023-02-28T12:48:11;0.00;99.90
26990;DHT22;14537;47.788;11.858;2023-02-28T12:50:39;-0.10;99.90
26990;DHT22;14537;47.788;11.858;2023-02-28T12:58:43;-0.20;99.90
26990;DHT22;14537;47.788;11.858;2023-02-28T13:01:27;-0.10;99.90
26990;DHT22;14537;47.788;11.858;2023-02-28T13:04:36;-0.10;99.90
26990;DHT22;14537;47.788;11.858;2023-02-28T13:10:10;0.00;99.90
26990;DHT22;14537;47.788;11.858;2023-02-28T13:12:36;-0.10;99.90
26990;DHT22;14537;47.788;11.858;2023-02-28T13:15:17;0.00;99.90
26990;DHT22;14537;47.788;11.858;2023-02-28T13:17:49;-0.10;99.90
26990;DHT22;14537;47.788;11.858;2023-02-28T13:20:19;0.10;99.90
26990;DHT22;14537;47.788;11.858;2023-02-28T13:22:50;0.10;99.90
26990;DHT22;14537;47.788;11.858;2023-02-28T13:27:48;0.60;99.90
26990;DHT22;14537;47.788;11.858;2023-02-28T13:38:45;1.00;99.90
26990;DHT22;14537;47.788;11.858;2023-02-28T13:44:42;1.00;99.90
26990;DHT22;14537;47.788;11.858;2023-02-28T13:51:52;0.60;99.90
26990;DHT22;14537;47.788;11.858;2023-02-28T14:05:17;0.70;99.90
26990;DHT22;14537;47.788;11.858;2023-02-28T14:07:52;0.60;99.90
26990;DHT22;14537;47.788;11.858;2023-02-28T14:10:31;0.50;99.90
26990;DHT22;14537;47.788;11.858;2023-02-28T14:13:10;0.50;99.90
26990;DHT22;14537;47.788;11.858;2023-02-28T14:18:32;0.60;99.90
26990;DHT22;14537;47.788;11.858;2023-02-28T14:20:59;0.50;99.90
26990;DHT22;14537;47.788;11.858;2023-02-28T14:34:51;0.40;99.90
26990;DHT22;14537;47.788;11.858;2023-02-28T14:37:32;0.30;99.90
26990;DHT22;14537;47.788;11.858;2023-02-28T14:40:00;0.50;99.90
26990;DHT22;14537;47.788;11.858;2023-02-28T14:42:35;0.60;99.90
26990;DHT22;14537;47.788;11.858;2023-02-28T14:45:03;0.70;99.90
26990;DHT22;14537;47.788;11.858;2023-02-28T14:47:33;0.70;99.90
26990;DHT22;14537;47.788;11.858;2023-02-28T14:50:02;0.60;99.90
26990;DHT22;14537;47.788;11.858;2023-02-28T14:52:31;0.50;99.90
26990;DHT22;14537;47.788;11.858;2023-02-28T14:55:00;0.50;99.90
26990;DHT22;14537;47.788;11.858;2023-02-28T14:57:34;0.50;99.90
26990;DHT22;14537;47.788;11.858;2023-02-28T15:02:36;0.50;99.90
26990;DHT22;14537;47.788;11.858;2023-02-28T15:07:47;0.40;99.90
26990;DHT22;14537;47.788;11.858;2023-02-28T15:10:20;0.40;99.90
26990;DHT22;14537;47.788;11.858;2023-02-28T15:12:58;0.40;99.90
26990;DHT22;14537;47.788;11.858;2023-02-28T15:17:59;0.30;99.90
26990;DHT22;14537;47.788;11.858;2023-02-28T15:20:26;0.30;99.90
26990;DHT22;14537;47.788;11.858;2023-02-28T15:22:54;0.40;99.90
26990;DHT22;14537;47.788;11.858;2023-02-28T15:25:21;0.40;99.90
26990;DHT22;14537;47.788;11.858;2023-02-28T15:27:50;0.50;99.90
26990;DHT22;14537;47.788;11.858;2023-02-28T15:30:21;0.50;99.90
26990;DHT22;14537;47.788;11.858;2023-02-28T15:33:28;0.50;99.90
26990;DHT22;14537;47.788;11.858;2023-02-28T15:36:06;0.50;99.90
26990;DHT22;14537;47.788;11.858;2023-02-28T15:38:35;0.40;99.90
26990;DHT22;14537;47.788;11.858;2023-02-28T15:41:01;0.30;99.90
26990;DHT22;14537;47.788;11.858;2023-02-28T15:43:27;0.30;99.90
26990;DHT22;14537;47.788;11.858;2023-02-28T15:46:20;0.30;99.90
26990;DHT22;14537;47.788;11.858;2023-02-28T15:48:55;0.30;99.90
26990;DHT22;14537;47.788;11.858;2023-02-28T15:51:33;0.20;99.90
26990;DHT22;14537;47.788;11.858;2023-02-28T15:54:34;0.10;99.90
26990;DHT22;14537;47.788;11.858;2023-02-28T15:56:55;0.00;99.90
26990;DHT22;14537;47.788;11.858;2023-02-28T15:59:28;-0.10;99.90
26990;DHT22;14537;47.788;11.858;2023-02-28T16:04:35;-0.20;99.90
26990;DHT22;14537;47.788;11.858;2023-02-28T16:07:03;-0.20;99.90
26990;DHT22;14537;47.788;11.858;2023-02-28T16:09:29;-0.30;99.90
26990;DHT22;14537;47.788;11.858;2023-02-28T16:11:59;-0.30;99.90
26990;DHT22;14537;47.788;11.858;2023-02-28T16:14:28;-0.30;99.90
26990;DHT22;14537;47.788;11.858;2023-02-28T16:17:06;-0.40;99.90
26990;DHT22;14537;47.788;11.858;2023-02-28T16:19:34;-0.50;99.90
26990;DHT22;14537;47.788;11.858;2023-02-28T16:22:00;-0.60;99.90
26990;DHT22;14537;47.788;11.858;2023-02-28T16:24:26;-0.70;99.90
26990;DHT22;14537;47.788;11.858;2023-02-28T16:26:53;-0.80;99.90
26990;DHT22;14537;47.788;11.858;2023-02-28T16:29:28;-0.80;99.90
26990;DHT22;14537;47.788;11.858;2023-02-28T16:31:54;-0.90;99.90
26990;DHT22;14537;47.788;11.858;2023-02-28T16:34:20;-1.00;99.90
26990;DHT22;14537;47.788;11.858;2023-02-28T16:36:47;-1.00;99.90
26990;DHT22;14537;47.788;11.858;2023-02-28T16:39:13;-1.10;99.90
26990;DHT22;14537;47.788;11.858;2023-02-28T16:41:43;-1.10;99.90
26990;DHT22;14537;47.788;11.858;2023-02-28T16:44:14;-1.20;99.90
26990;DHT22;14537;47.788;11.858;2023-02-28T16:46:46;-1.30;99.90
26990;DHT22;14537;47.788;11.858;2023-02-28T16:49:12;-1.40;99.90
26990;DHT22;14537;47.788;11.858;2023-02-28T16:51:40;-1.50;99.90
26990;DHT22;14537;47.788;11.858;2023-02-28T16:54:06;-1.60;99.90
26990;DHT22;14537;47.788;11.858;2023-02-28T16:56:32;-1.60;99.90
26990;DHT22;14537;47.788;11.858;2023-02-28T16:59:02;-1.70;99.90
26990;DHT22;14537;47.788;11.858;2023-02-28T17:01:28;-1.70;99.90
26990;DHT22;14537;47.788;11.858;2023-02-28T17:03:54;-1.70;99.90
26990;DHT22;14537;47.788;11.858;2023-02-28T17:06:23;-1.70;99.90
26990;DHT22;14537;47.788;11.858;2023-02-28T17:08:50;-1.80;99.90
26990;DHT22;14537;47.788;11.858;2023-02-28T17:11:16;-1.80;99.90
26990;DHT22;14537;47.788;11.858;2023-02-28T17:13:42;-1.80;99.90
26990;DHT22;14537;47.788;11.858;2023-02-28T17:16:17;-1.80;99.90
26990;DHT22;14537;47.788;11.858;2023-02-28T17:18:45;-1.80;99.90
26990;DHT22;14537;47.788;11.858;2023-02-28T17:21:15;-1.80;99.90
26990;DHT22;14537;47.788;11.858;2023-02-28T17:23:41;-1.80;99.90
26990;DHT22;14537;47.788;11.858;2023-02-28T17:26:13;-1.80;99.90
26990;DHT22;14537;47.788;11.858;2023-02-28T17:28:39;-1.70;99.90
26990;DHT22;14537;47.788;11.858;2023-02-28T17:31:05;-1.70;99.90
26990;DHT22;14537;47.788;11.858;2023-02-28T17:33:30;-1.70;99.90
26990;DHT22;14537;47.788;11.858;2023-02-28T17:35:56;-1.70;99.90
26990;DHT22;14537;47.788;11.858;2023-02-28T17:38:22;-1.70;99.90
26990;DHT22;14537;47.788;11.858;2023-02-28T17:40:48;-1.70;99.90
26990;DHT22;14537;47.788;11.858;2023-02-28T17:43:14;-1.60;99.90
26990;DHT22;14537;47.788;11.858;2023-02-28T17:45:40;-1.60;99.90
26990;DHT22;14537;47.788;11.858;2023-02-28T17:48:06;-1.60;99.90
26990;DHT22;14537;47.788;11.858;2023-02-28T17:50:33;-1.60;99.90
26990;DHT22;14537;47.788;11.858;2023-02-28T17:52:59;-1.60;99.90
26990;DHT22;14537;47.788;11.858;2023-02-28T17:55:25;-1.60;99.90
26990;DHT22;14537;47.788;11.858;2023-02-28T17:57:50;-1.70;99.90
26990;DHT22;14537;47.788;11.858;2023-02-28T18:00:16;-1.60;99.90
26990;DHT22;14537;47.788;11.858;2023-02-28T18:02:43;-1.60;99.90
26990;DHT22;14537;47.788;11.858;2023-02-28T18:05:09;-1.60;99.90
26990;DHT22;14537;47.788;11.858;2023-02-28T18:07:39;-1.60;99.90
26990;DHT22;14537;47.788;11.858;2023-02-28T18:10:06;-1.60;99.90
26990;DHT22;14537;47.788;11.858;2023-02-28T18:12:32;-1.60;99.90
26990;DHT22;14537;47.788;11.858;2023-02-28T18:14:58;-1.60;99.90
26990;DHT22;14537;47.788;11.858;2023-02-28T18:17:24;-1.50;99.90
26990;DHT22;14537;47.788;11.858;2023-02-28T18:19:49;-1.60;99.90